createdAt,value
2023-03-29T04:36:27.631Z,4.87
2023-03-29T04:39:32.171Z,6.85
2023-03-29T04:42:35.445Z,8.63
2023-03-29T04:45:39.357Z,14.23
2023-03-29T04:48:42.068Z,14.80
2023-03-29T04:51:44.648Z,11.70
2023-03-29T04:54:47.277Z,11.20
2023-03-29T04:57:49.863Z,7.80
2023-03-29T05:00:55.131Z,10.43
2023-03-29T05:03:57.750Z,9.68
2023-03-29T05:07:02.726Z,6.72
2023-03-29T05:13:10.380Z,6.50
2023-03-29T05:16:13.242Z,8.57
2023-03-29T05:19:16.897Z,9.75
2023-03-29T05:22:20.579Z,10.63
2023-03-29T05:25:23.799Z,9.32
2023-03-29T05:28:27.364Z,8.77
2023-03-29T05:31:30.718Z,8.32
2023-03-29T05:34:33.517Z,7.53
2023-03-29T05:37:36.330Z,7.95
2023-03-29T05:40:39.351Z,9.00
2023-03-29T05:43:42.394Z,8.20
2023-03-29T05:46:45.409Z,8.57
2023-03-29T05:49:48.220Z,11.80
2023-03-29T05:52:52.219Z,15.45
2023-03-29T05:55:55.377Z,17.25
2023-03-29T05:58:58.790Z,15.27
2023-03-29T06:02:03.997Z,15.30
2023-03-29T06:05:08.087Z,13.25
2023-03-29T06:08:12.254Z,10.88
2023-03-29T06:11:16.147Z,9.98
2023-03-29T06:14:19.750Z,9.02
2023-03-29T06:17:23.054Z,8.90
2023-03-29T06:20:26.514Z,9.50
2023-03-29T06:23:29.711Z,8.43
2023-03-29T06:26:32.571Z,7.55
2023-03-29T06:29:35.303Z,8.18
2023-03-29T06:32:38.095Z,7.50
2023-03-29T06:35:46.130Z,6.97
2023-03-29T06:38:48.867Z,5.45
2023-03-29T06:41:51.629Z,4.15
2023-03-29T06:44:56.215Z,4.55
2023-03-29T06:47:59.703Z,4.00
2023-03-29T06:51:02.638Z,4.47
2023-03-29T06:54:05.806Z,4.35
2023-03-29T06:57:08.691Z,4.03
2023-03-29T07:00:17.969Z,3.80
2023-03-29T07:03:23.610Z,3.95
2023-03-29T07:06:26.601Z,4.10
2023-03-29T07:09:30.189Z,4.75
2023-03-29T07:12:32.836Z,6.20
2023-03-29T07:15:35.765Z,6.05
2023-03-29T07:18:41.779Z,4.80
2023-03-29T07:21:44.444Z,4.80
2023-03-29T07:24:47.077Z,3.65
2023-03-29T07:27:49.702Z,3.55
2023-03-29T07:30:52.905Z,3.83
2023-03-29T07:33:56.245Z,3.72
2023-03-29T07:36:59.421Z,3.97
2023-03-29T07:40:04.414Z,3.90
2023-03-29T07:43:09.180Z,3.97
2023-03-29T07:46:11.806Z,3.45
2023-03-29T07:49:14.448Z,3.80
2023-03-29T07:52:17.519Z,3.65
2023-03-29T07:55:20.166Z,3.87
2023-03-29T07:58:22.764Z,4.68
2023-03-29T08:01:25.783Z,4.15
2023-03-29T08:04:28.572Z,4.53
2023-03-29T08:07:31.446Z,4.50
2023-03-29T08:10:34.761Z,4.80
2023-03-29T08:13:37.529Z,4.07
2023-03-29T08:16:40.191Z,4.40
2023-03-29T08:19:51.034Z,4.00
2023-03-29T08:22:54.734Z,4.30
2023-03-29T08:25:57.299Z,3.62
2023-03-29T08:28:59.888Z,3.60
2023-03-29T08:32:03.042Z,4.20
2023-03-29T08:35:09.768Z,4.45
2023-03-29T08:38:12.797Z,3.40
2023-03-29T08:41:29.431Z,4.18
2023-03-29T08:44:43.261Z,3.80
2023-03-29T08:48:04.544Z,4.05
2023-03-29T08:51:32.791Z,4.12
2023-03-29T08:54:40.527Z,5.62
2023-03-29T08:57:47.604Z,4.00
2023-03-29T09:01:05.159Z,3.50
2023-03-29T09:04:16.669Z,3.50
2023-03-29T09:07:19.256Z,3.75
2023-03-29T09:10:27.329Z,3.90
2023-03-29T09:13:42.546Z,4.47
2023-03-29T09:17:11.818Z,3.67
2023-03-29T09:20:37.526Z,3.20
2023-03-29T09:24:01.324Z,3.62
2023-03-29T09:27:22.525Z,4.95
2023-03-29T09:30:31.184Z,3.72
2023-03-29T09:33:42.967Z,4.12
2023-03-29T09:36:50.006Z,3.37
2023-03-29T09:39:55.931Z,3.50
2023-03-29T09:42:58.699Z,3.78
2023-03-29T09:46:03.387Z,2.65
2023-03-29T09:49:07.135Z,5.47
2023-03-29T09:52:13.107Z,2.53
2023-03-29T09:55:16.908Z,2.90
2023-03-29T09:58:27.682Z,2.00
2023-03-29T10:01:45.425Z,3.58
2023-03-29T10:04:55.310Z,4.40
2023-03-29T10:07:59.058Z,2.37
2023-03-29T10:11:03.743Z,1.87
2023-03-29T10:14:35.393Z,3.80
2023-03-29T10:17:40.560Z,5.53
2023-03-29T10:20:43.187Z,3.37
2023-03-29T10:23:46.235Z,2.12
2023-03-29T10:26:56.463Z,2.70
2023-03-29T10:29:59.783Z,8.50
2023-03-29T10:33:02.560Z,4.40
2023-03-29T10:36:06.847Z,2.22
2023-03-29T10:39:10.173Z,8.80
2023-03-29T10:42:15.044Z,5.37
2023-03-29T10:45:31.415Z,2.80
2023-03-29T10:48:34.852Z,2.60
2023-03-29T10:51:37.620Z,2.60
2023-03-29T10:54:40.509Z,2.85
2023-03-29T10:58:07.755Z,2.20
2023-03-29T11:01:15.604Z,5.60
2023-03-29T11:04:36.537Z,2.00
2023-03-29T11:07:57.615Z,3.17
2023-03-29T11:11:32.995Z,2.20
2023-03-29T11:14:44.625Z,2.28
2023-03-29T11:18:22.815Z,2.05
2023-03-29T11:21:50.094Z,2.12
2023-03-29T11:25:27.790Z,3.00
2023-03-29T11:28:35.609Z,4.55
2023-03-29T11:31:41.788Z,3.75
2023-03-29T11:34:57.502Z,4.65
2023-03-29T11:38:18.134Z,4.47
2023-03-29T11:41:31.907Z,2.45
2023-03-29T11:44:34.574Z,2.78
2023-03-29T11:47:37.873Z,2.40
2023-03-29T11:50:48.695Z,2.97
2023-03-29T11:54:16.438Z,3.20
2023-03-29T11:57:23.913Z,2.90
2023-03-29T12:00:41.068Z,3.12
2023-03-29T12:03:51.013Z,2.22
2023-03-29T12:07:02.510Z,2.15
2023-03-29T12:10:24.248Z,2.60
2023-03-29T12:13:29.167Z,3.00
2023-03-29T12:16:46.868Z,2.40
2023-03-29T12:20:01.188Z,2.40
2023-03-29T12:23:03.782Z,2.37
2023-03-29T12:26:09.246Z,2.40
2023-03-29T12:29:32.796Z,2.37
2023-03-29T12:32:50.590Z,2.47
2023-03-29T12:35:59.661Z,2.40
2023-03-29T12:39:02.436Z,2.28
2023-03-29T12:42:23.258Z,5.57
2023-03-29T12:45:43.121Z,5.37
2023-03-29T12:48:57.358Z,3.05
2023-03-29T12:52:00.354Z,3.05
2023-03-29T12:55:21.881Z,3.62
2023-03-29T12:58:47.631Z,4.22
2023-03-29T13:02:15.624Z,5.72
2023-03-29T13:05:34.547Z,3.90
2023-03-29T13:08:42.564Z,2.60
2023-03-29T13:11:45.071Z,2.83
2023-03-29T13:14:54.477Z,2.47
2023-03-29T13:18:06.358Z,3.17
2023-03-29T13:21:09.348Z,2.75
2023-03-29T13:24:39.777Z,3.35
2023-03-29T13:27:45.512Z,4.87
2023-03-29T13:31:05.795Z,3.80
2023-03-29T13:34:57.756Z,3.20
2023-03-29T13:38:09.148Z,2.87
2023-03-29T13:41:44.636Z,2.97
2023-03-29T13:44:49.270Z,4.27
2023-03-29T13:48:05.871Z,3.22
2023-03-29T13:51:18.259Z,4.37
2023-03-29T13:54:23.940Z,4.78
2023-03-29T13:57:39.253Z,3.60
2023-03-29T14:01:02.088Z,4.12
2023-03-29T14:04:05.551Z,3.40
2023-03-29T14:07:08.329Z,4.22
2023-03-29T14:10:23.309Z,4.82
2023-03-29T14:13:26.091Z,3.65
2023-03-29T14:16:33.246Z,4.40
2023-03-29T14:19:37.010Z,4.18
2023-03-29T14:22:41.996Z,4.35
2023-03-29T14:25:44.571Z,3.80
2023-03-29T14:28:48.896Z,3.92
2023-03-29T14:31:51.585Z,4.97
2023-03-29T14:34:54.161Z,4.00
2023-03-29T14:37:56.802Z,4.53
2023-03-29T14:40:59.921Z,4.47
2023-03-29T14:44:03.383Z,4.43
2023-03-29T14:47:06.034Z,3.53
2023-03-29T14:50:20.144Z,4.50
2023-03-29T14:53:23.336Z,3.85
2023-03-29T14:56:26.577Z,3.20
2023-03-29T14:59:41.968Z,3.83
2023-03-29T15:02:54.746Z,4.18
2023-03-29T15:06:02.524Z,3.45
